sensor_id;sensor_type;location;lat;lon;timestamp;pressure;altitude;pressure_sealevel;temperature;humidity
24788;BME280;12883;52.662;5.196;2023-05-07T00:01:25;101625.50;;;14.99;100.00
24788;BME280;12883;52.662;5.196;2023-05-07T00:03:51;101633.13;;;15.02;100.00
24788;BME280;12883;52.662;5.196;2023-05-07T00:06:16;101605.16;;;14.85;100.00
24788;BME280;12883;52.662;5.196;2023-05-07T00:08:42;101630.66;;;14.94;100.00
24788;BME280;12883;52.662;5.196;2023-05-07T00:11:07;101639.28;;;14.96;100.00
24788;BME280;12883;52.662;5.196;2023-05-07T00:13:33;101609.69;;;14.78;100.00
24788;BME280;12883;52.662;5.196;2023-05-07T00:16:03;101640.31;;;14.95;100.00
24788;BME280;12883;52.662;5.196;2023-05-07T00:18:29;101644.63;;;14.96;100.00
24788;BME280;12883;52.662;5.196;2023-05-07T00:20:55;101633.94;;;14.96;100.00
24788;BME280;12883;52.662;5.196;2023-05-07T00:23:21;101644.63;;;14.96;100.00
24788;BME280;12883;52.662;5.196;2023-05-07T00:25:46;101634.16;;;14.95;100.00
24788;BME280;12883;52.662;5.196;2023-05-07T00:28:11;101629.44;;;14.97;100.00
24788;BME280;12883;52.662;5.196;2023-05-07T00:30:37;101637.44;;;14.97;100.00
24788;BME280;12883;52.662;5.196;2023-05-07T00:33:02;101617.31;;;14.82;100.00
24788;BME280;12883;52.662;5.196;2023-05-07T00:35:28;101635.78;;;14.96;100.00
24788;BME280;12883;52.662;5.196;2023-05-07T00:37:54;101608.25;;;14.82;100.00
24788;BME280;12883;52.662;5.196;2023-05-07T00:40:20;101633.09;;;14.96;100.00
24788;BME280;12883;52.662;5.196;2023-05-07T00:42:45;101595.94;;;14.75;100.00
24788;BME280;12883;52.662;5.196;2023-05-07T00:45:13;101633.34;;;14.94;100.00
24788;BME280;12883;52.662;5.196;2023-05-07T00:47:39;101627.19;;;14.88;100.00
24788;BME280;12883;52.662;5.196;2023-05-07T00:50:05;101629.03;;;14.93;100.00
24788;BME280;12883;52.662;5.196;2023-05-07T00:52:30;101629.03;;;14.93;100.00
24788;BME280;12883;52.662;5.196;2023-05-07T00:54:56;101587.09;;;14.75;100.00
24788;BME280;12883;52.662;5.196;2023-05-07T00:57:23;101614.19;;;14.97;100.00
24788;BME280;12883;52.662;5.196;2023-05-07T00:59:51;101599.81;;;14.85;100.00
24788;BME280;12883;52.662;5.196;2023-05-07T01:02:16;101590.59;;;14.82;100.00
24788;BME280;12883;52.662;5.196;2023-05-07T01:04:41;101615.66;;;14.93;100.00
24788;BME280;12883;52.662;5.196;2023-05-07T01:07:07;101616.25;;;14.89;100.00
24788;BME280;12883;52.662;5.196;2023-05-07T01:09:34;101609.69;;;14.91;100.00
24788;BME280;12883;52.662;5.196;2023-05-07T01:12:01;101577.44;;;14.67;100.00
24788;BME280;12883;52.662;5.196;2023-05-07T01:14:27;101628.81;;;14.88;100.00
24788;BME280;12883;52.662;5.196;2023-05-07T01:16:53;101624.50;;;14.88;100.00
24788;BME280;12883;52.662;5.196;2023-05-07T01:19:19;101625.53;;;14.87;100.00
24788;BME280;12883;52.662;5.196;2023-05-07T01:21:48;101614.84;;;14.87;100.00
24788;BME280;12883;52.662;5.196;2023-05-07T01:24:14;101615.69;;;14.81;100.00
24788;BME280;12883;52.662;5.196;2023-05-07T01:26:42;101616.72;;;14.80;100.00
24788;BME280;12883;52.662;5.196;2023-05-07T01:29:07;101615.69;;;14.81;100.00
24788;BME280;12883;52.662;5.196;2023-05-07T01:31:34;101606.19;;;14.72;100.00
24788;BME280;12883;52.662;5.196;2023-05-07T01:34:01;101613.19;;;14.79;100.00
24788;BME280;12883;52.662;5.196;2023-05-07T01:36:29;101621.41;;;14.77;100.00
24788;BME280;12883;52.662;5.196;2023-05-07T01:38:55;101619.78;;;14.77;100.00
24788;BME280;12883;52.662;5.196;2023-05-07T01:41:23;101616.28;;;14.70;100.00
24788;BME280;12883;52.662;5.196;2023-05-07T01:43:50;101610.13;;;14.69;100.00
24788;BME280;12883;52.662;5.196;2023-05-07T01:46:17;101615.66;;;14.74;100.00
24788;BME280;12883;52.662;5.196;2023-05-07T01:48:43;101591.84;;;14.73;100.00
24788;BME280;12883;52.662;5.196;2023-05-07T01:51:11;101587.72;;;14.64;100.00
24788;BME280;12883;52.662;5.196;2023-05-07T01:53:37;101579.53;;;14.59;100.00
24788;BME280;12883;52.662;5.196;2023-05-07T01:56:03;101606.00;;;14.73;100.00
24788;BME280;12883;52.662;5.196;2023-05-07T01:58:28;101608.06;;;14.71;100.00
24788;BME280;12883;52.662;5.196;2023-05-07T02:00:53;101587.13;;;14.55;100.00
24788;BME280;12883;52.662;5.196;2023-05-07T02:03:19;101613.00;;;14.68;100.00
24788;BME280;12883;52.662;5.196;2023-05-07T02:05:44;101608.69;;;14.67;100.00
24788;BME280;12883;52.662;5.196;2023-05-07T02:08:10;101602.31;;;14.61;100.00
24788;BME280;12883;52.662;5.196;2023-05-07T02:10:35;101602.09;;;14.63;100.00
24788;BME280;12883;52.662;5.196;2023-05-07T02:13:01;101611.16;;;14.62;100.00
24788;BME280;12883;52.662;5.196;2023-05-07T02:15:27;101618.13;;;14.63;100.00
24788;BME280;12883;52.662;5.196;2023-05-07T02:18:04;101566.97;;;14.40;100.00
24788;BME280;12883;52.662;5.196;2023-05-07T02:20:29;101616.50;;;14.62;100.00
24788;BME280;12883;52.662;5.196;2023-05-07T02:22:55;101612.78;;;14.63;100.00
24788;BME280;12883;52.662;5.196;2023-05-07T02:25:20;101618.13;;;14.63;100.00
24788;BME280;12883;52.662;5.196;2023-05-07T02:27:46;101597.59;;;14.57;100.00
24788;BME280;12883;52.662;5.196;2023-05-07T02:30:11;101604.56;;;14.58;100.00
24788;BME280;12883;52.662;5.196;2023-05-07T02:32:36;101604.16;;;14.61;100.00
24788;BME280;12883;52.662;5.196;2023-05-07T02:35:02;101605.63;;;14.63;100.00
24788;BME280;12883;52.662;5.196;2023-05-07T02:37:27;101606.22;;;14.65;100.00
24788;BME280;12883;52.662;5.196;2023-05-07T02:39:53;101609.09;;;14.64;100.00
24788;BME280;12883;52.662;5.196;2023-05-07T02:42:18;101608.47;;;14.62;100.00
24788;BME280;12883;52.662;5.196;2023-05-07T02:44:43;101612.41;;;14.66;100.00
24788;BME280;12883;52.662;5.196;2023-05-07T02:47:10;101618.75;;;14.65;100.00
24788;BME280;12883;52.662;5.196;2023-05-07T02:49:35;101592.66;;;14.54;100.00
24788;BME280;12883;52.662;5.196;2023-05-07T02:52:00;101621.03;;;14.68;100.00
24788;BME280;12883;52.662;5.196;2023-05-07T02:54:26;101639.13;;;14.66;100.00
24788;BME280;12883;52.662;5.196;2023-05-07T02:56:51;101618.53;;;14.53;100.00
24788;BME280;12883;52.662;5.196;2023-05-07T02:59:16;101625.13;;;14.64;100.00
24788;BME280;12883;52.662;5.196;2023-05-07T03:01:42;101630.47;;;14.64;100.00
24788;BME280;12883;52.662;5.196;2023-05-07T03:04:09;101615.69;;;14.55;100.00
24788;BME280;12883;52.662;5.196;2023-05-07T03:06:35;101628.00;;;14.62;100.00
24788;BME280;12883;52.662;5.196;2023-05-07T03:09:01;101639.13;;;14.66;100.00
24788;BME280;12883;52.662;5.196;2023-05-07T03:11:26;101634.56;;;14.66;100.00
24788;BME280;12883;52.662;5.196;2023-05-07T03:13:52;101635.41;;;14.67;100.00
24788;BME280;12883;52.662;5.196;2023-05-07T03:16:17;101634.78;;;14.65;100.00
24788;BME280;12883;52.662;5.196;2023-05-07T03:18:42;101639.13;;;14.66;100.00
24788;BME280;12883;52.662;5.196;2023-05-07T03:21:08;101630.47;;;14.64;100.00
24788;BME280;12883;52.662;5.196;2023-05-07T03:23:33;101640.13;;;14.65;100.00
24788;BME280;12883;52.662;5.196;2023-05-07T03:25:59;101631.50;;;14.63;100.00
24788;BME280;12883;52.662;5.196;2023-05-07T03:28:24;101630.47;;;14.64;100.00
24788;BME280;12883;52.662;5.196;2023-05-07T03:30:49;101627.19;;;14.62;100.00
24788;BME280;12883;52.662;5.196;2023-05-07T03:33:15;101637.44;;;14.65;100.00
24788;BME280;12883;52.662;5.196;2023-05-07T03:35:41;101632.94;;;14.65;100.00
24788;BME280;12883;52.662;5.196;2023-05-07T03:38:07;101602.09;;;14.50;100.00
24788;BME280;12883;52.662;5.196;2023-05-07T03:40:32;101630.47;;;14.64;100.00
24788;BME280;12883;52.662;5.196;2023-05-07T03:42:59;101613.00;;;14.55;100.00
24788;BME280;12883;52.662;5.196;2023-05-07T03:45:25;101628.44;;;14.66;100.00
24788;BME280;12883;52.662;5.196;2023-05-07T03:47:51;101621.03;;;14.68;100.00
24788;BME280;12883;52.662;5.196;2023-05-07T03:50:16;101606.81;;;14.54;100.00
24788;BME280;12883;52.662;5.196;2023-05-07T03:52:41;101623.25;;;14.71;100.00
24788;BME280;12883;52.662;5.196;2023-05-07T03:55:07;101627.56;;;14.72;100.00
24788;BME280;12883;52.662;5.196;2023-05-07T03:57:33;101625.53;;;14.74;100.00
24788;BME280;12883;52.662;5.196;2023-05-07T03:59:58;101608.69;;;14.60;100.00
24788;BME280;12883;52.662;5.196;2023-05-07T04:02:23;101630.06;;;14.73;100.00
24788;BME280;12883;52.662;5.196;2023-05-07T04:04:49;101628.81;;;14.76;100.00
24788;BME280;12883;52.662;5.196;2023-05-07T04:07:14;101627.19;;;14.75;100.00
24788;BME280;12883;52.662;5.196;2023-05-07T04:09:40;101629.25;;;14.73;100.00
24788;BME280;12883;52.662;5.196;2023-05-07T04:12:05;101625.13;;;14.70;100.00
24788;BME280;12883;52.662;5.196;2023-05-07T04:14:31;101637.25;;;14.73;100.00
24788;BME280;12883;52.662;5.196;2023-05-07T04:16:58;101632.13;;;14.71;100.00
24788;BME280;12883;52.662;5.196;2023-05-07T04:19:23;101633.16;;;14.70;100.00
24788;BME280;12883;52.662;5.196;2023-05-07T04:21:49;101631.28;;;14.71;100.00
24788;BME280;12883;52.662;5.196;2023-05-07T04:24:14;101644.88;;;14.69;100.00
24788;BME280;12883;52.662;5.196;2023-05-07T04:26:40;101633.53;;;14.67;100.00
24788;BME280;12883;52.662;5.196;2023-05-07T04:29:05;101626.16;;;14.63;100.00
24788;BME280;12883;52.662;5.196;2023-05-07T04:31:30;101643.63;;;14.65;100.00
24788;BME280;12883;52.662;5.196;2023-05-07T04:33:56;101645.66;;;14.70;100.00
24788;BME280;12883;52.662;5.196;2023-05-07T04:36:22;101641.34;;;14.69;100.00
24788;BME280;12883;52.662;5.196;2023-05-07T04:38:47;101630.28;;;14.59;100.00
24788;BME280;12883;52.662;5.196;2023-05-07T04:41:13;101639.09;;;14.59;100.00
24788;BME280;12883;52.662;5.196;2023-05-07T04:43:38;101647.13;;;14.66;100.00
24788;BME280;12883;52.662;5.196;2023-05-07T04:46:04;101637.66;;;14.63;100.00
24788;BME280;12883;52.662;5.196;2023-05-07T04:48:30;101646.50;;;14.64;100.00
24788;BME280;12883;52.662;5.196;2023-05-07T04:50:55;101641.75;;;14.59;100.00
24788;BME280;12883;52.662;5.196;2023-05-07T04:53:20;101654.94;;;14.61;100.00
24788;BME280;12883;52.662;5.196;2023-05-07T04:55:46;101655.53;;;14.56;100.00
24788;BME280;12883;52.662;5.196;2023-05-07T04:58:12;101662.34;;;14.59;100.00
24788;BME280;12883;52.662;5.196;2023-05-07T05:00:38;101666.22;;;14.63;100.00
24788;BME280;12883;52.662;5.196;2023-05-07T05:03:04;101656.34;;;14.57;100.00
24788;BME280;12883;52.662;5.196;2023-05-07T05:05:30;101660.88;;;14.63;100.00
24788;BME280;12883;52.662;5.196;2023-05-07T05:07:55;101664.16;;;14.65;100.00
24788;BME280;12883;52.662;5.196;2023-05-07T05:10:22;101660.47;;;14.66;100.00
24788;BME280;12883;52.662;5.196;2023-05-07T05:12:47;101685.34;;;14.66;100.00
24788;BME280;12883;52.662;5.196;2023-05-07T05:15:12;101669.91;;;14.68;100.00
24788;BME280;12883;52.662;5.196;2023-05-07T05:17:38;101673.84;;;14.66;100.00
24788;BME280;12883;52.662;5.196;2023-05-07T05:20:04;101674.03;;;14.71;100.00
24788;BME280;12883;52.662;5.196;2023-05-07T05:22:31;101666.84;;;14.71;100.00
24788;BME280;12883;52.662;5.196;2023-05-07T05:24:56;101673.22;;;14.77;100.00
24788;BME280;12883;52.662;5.196;2023-05-07T05:27:22;101673.81;;;14.78;100.00
24788;BME280;12883;52.662;5.196;2023-05-07T05:29:47;101677.53;;;14.77;100.00
24788;BME280;12883;52.662;5.196;2023-05-07T05:32:13;101691.72;;;14.78;100.00
24788;BME280;12883;52.662;5.196;2023-05-07T05:34:38;101660.47;;;14.59;100.00
24788;BME280;12883;52.662;5.196;2023-05-07T05:37:03;101699.53;;;14.80;100.00
24788;BME280;12883;52.662;5.196;2023-05-07T05:39:29;101695.84;;;14.81;100.00
24788;BME280;12883;52.662;5.196;2023-05-07T05:41:54;101697.47;;;14.82;100.00
24788;BME280;12883;52.662;5.196;2023-05-07T05:44:19;101703.84;;;14.81;100.00
24788;BME280;12883;52.662;5.196;2023-05-07T05:46:45;101696.88;;;14.80;100.00
24788;BME280;12883;52.662;5.196;2023-05-07T05:49:10;101688.22;;;14.77;100.00
24788;BME280;12883;52.662;5.196;2023-05-07T05:51:36;101699.53;;;14.80;100.00
24788;BME280;12883;52.662;5.196;2023-05-07T05:54:01;101700.34;;;14.80;100.00
24788;BME280;12883;52.662;5.196;2023-05-07T05:56:26;101702.22;;;14.80;100.00
24788;BME280;12883;52.662;5.196;2023-05-07T05:58:52;101701.81;;;14.76;100.00
24788;BME280;12883;52.662;5.196;2023-05-07T06:01:18;101711.22;;;14.78;100.00
24788;BME280;12883;52.662;5.196;2023-05-07T06:03:44;101710.63;;;14.77;100.00
24788;BME280;12883;52.662;5.196;2023-05-07T06:06:09;101696.25;;;14.71;100.00
24788;BME280;12883;52.662;5.196;2023-05-07T06:08:34;101695.38;;;14.58;100.00
24788;BME280;12883;52.662;5.196;2023-05-07T06:11:00;101704.06;;;14.73;100.00
24788;BME280;12883;52.662;5.196;2023-05-07T06:13:26;101709.59;;;14.77;100.00
24788;BME280;12883;52.662;5.196;2023-05-07T06:15:51;101719.25;;;14.78;100.00
24788;BME280;12883;52.662;5.196;2023-05-07T06:18:17;101717.63;;;14.71;100.00
24788;BME280;12883;52.662;5.196;2023-05-07T06:20:42;101714.09;;;14.71;100.00
24788;BME280;12883;52.662;5.196;2023-05-07T06:23:07;101723.97;;;14.64;100.00
24788;BME280;12883;52.662;5.196;2023-05-07T06:25:33;101708.94;;;14.50;100.00
24788;BME280;12883;52.662;5.196;2023-05-07T06:27:58;101725.81;;;14.63;100.00
24788;BME280;12883;52.662;5.196;2023-05-07T06:30:23;101727.06;;;14.61;100.00
24788;BME280;12883;52.662;5.196;2023-05-07T06:32:49;101720.06;;;14.60;100.00
24788;BME280;12883;52.662;5.196;2023-05-07T06:35:14;101721.72;;;14.67;100.00
24788;BME280;12883;52.662;5.196;2023-05-07T06:37:41;101686.75;;;14.49;100.00
24788;BME280;12883;52.662;5.196;2023-05-07T06:40:08;101730.34;;;14.76;100.00
24788;BME280;12883;52.662;5.196;2023-05-07T06:42:35;101710.59;;;14.64;100.00
24788;BME280;12883;52.662;5.196;2023-05-07T06:45:00;101730.78;;;14.73;100.00
24788;BME280;12883;52.662;5.196;2023-05-07T06:47:26;101725.44;;;14.79;100.00
24788;BME280;12883;52.662;5.196;2023-05-07T06:49:51;101735.28;;;14.78;100.00
24788;BME280;12883;52.662;5.196;2023-05-07T06:52:16;101730.34;;;14.76;100.00
24788;BME280;12883;52.662;5.196;2023-05-07T06:54:42;101743.94;;;14.81;100.00
24788;BME280;12883;52.662;5.196;2023-05-07T06:57:07;101741.03;;;14.82;100.00
24788;BME280;12883;52.662;5.196;2023-05-07T06:59:32;101733.63;;;14.77;100.00
24788;BME280;12883;52.662;5.196;2023-05-07T07:01:58;101747.22;;;14.82;100.00
24788;BME280;12883;52.662;5.196;2023-05-07T07:04:23;101731.41;;;14.88;100.00
24788;BME280;12883;52.662;5.196;2023-05-07T07:06:52;101730.56;;;14.81;100.00
24788;BME280;12883;52.662;5.196;2023-05-07T07:09:17;101741.88;;;14.89;100.00
24788;BME280;12883;52.662;5.196;2023-05-07T07:11:42;101739.59;;;14.92;100.00
24788;BME280;12883;52.662;5.196;2023-05-07T07:14:08;101734.06;;;14.88;100.00
24788;BME280;12883;52.662;5.196;2023-05-07T07:16:33;101732.22;;;14.88;100.00
24788;BME280;12883;52.662;5.196;2023-05-07T07:18:58;101742.94;;;15.07;100.00
24788;BME280;12883;52.662;5.196;2023-05-07T07:21:24;101739.81;;;14.97;100.00
24788;BME280;12883;52.662;5.196;2023-05-07T07:23:49;101747.25;;;14.95;100.00
24788;BME280;12883;52.662;5.196;2023-05-07T07:26:15;101743.53;;;14.90;100.00
24788;BME280;12883;52.662;5.196;2023-05-07T07:28:44;101747.63;;;14.92;100.00
24788;BME280;12883;52.662;5.196;2023-05-07T07:31:10;101748.06;;;15.02;100.00
24788;BME280;12883;52.662;5.196;2023-05-07T07:33:35;101753.81;;;14.99;100.00
24788;BME280;12883;52.662;5.196;2023-05-07T07:36:00;101698.28;;;14.76;100.00
24788;BME280;12883;52.662;5.196;2023-05-07T07:38:26;101749.91;;;15.08;100.00
24788;BME280;12883;52.662;5.196;2023-05-07T07:40:51;101746.41;;;15.08;100.00
24788;BME280;12883;52.662;5.196;2023-05-07T07:43:16;101744.75;;;15.13;100.00
24788;BME280;12883;52.662;5.196;2023-05-07T07:45:41;101750.50;;;15.17;100.00
24788;BME280;12883;52.662;5.196;2023-05-07T07:48:07;101739.84;;;15.23;100.00
24788;BME280;12883;52.662;5.196;2023-05-07T07:50:32;101750.31;;;15.18;100.00
24788;BME280;12883;52.662;5.196;2023-05-07T07:52:57;101735.13;;;15.19;100.00
24788;BME280;12883;52.662;5.196;2023-05-07T07:55:23;101726.50;;;15.36;100.00
24788;BME280;12883;52.662;5.196;2023-05-07T07:57:51;101736.13;;;15.63;100.00
24788;BME280;12883;52.662;5.196;2023-05-07T08:00:24;101739.44;;;15.00;100.00
24788;BME280;12883;52.662;5.196;2023-05-07T08:02:49;101726.22;;;15.70;100.00
24788;BME280;12883;52.662;5.196;2023-05-07T08:05:14;101722.94;;;15.62;100.00
24788;BME280;12883;52.662;5.196;2023-05-07T08:07:41;101587.31;;;14.73;100.00
24788;BME280;12883;52.662;5.196;2023-05-07T08:10:07;101531.41;;;14.78;100.00
24788;BME280;12883;52.662;5.196;2023-05-07T08:12:32;101717.63;;;15.42;100.00
24788;BME280;12883;52.662;5.196;2023-05-07T08:14:58;101751.59;;;16.12;100.00
24788;BME280;12883;52.662;5.196;2023-05-07T08:17:23;101643.97;;;15.40;100.00
24788;BME280;12883;52.662;5.196;2023-05-07T08:19:49;101757.53;;;16.20;100.00
24788;BME280;12883;52.662;5.196;2023-05-07T08:22:14;101765.19;;;16.17;100.00
24788;BME280;12883;52.662;5.196;2023-05-07T08:24:40;101749.50;;;16.20;100.00
24788;BME280;12883;52.662;5.196;2023-05-07T08:27:05;101757.91;;;16.30;100.00
24788;BME280;12883;52.662;5.196;2023-05-07T08:29:30;101745.13;;;16.32;100.00
24788;BME280;12883;52.662;5.196;2023-05-07T08:31:56;101759.94;;;16.41;100.00
24788;BME280;12883;52.662;5.196;2023-05-07T08:34:22;101768.44;;;16.25;100.00
24788;BME280;12883;52.662;5.196;2023-05-07T08:36:47;101767.16;;;16.34;100.00
24788;BME280;12883;52.662;5.196;2023-05-07T08:39:15;101780.34;;;16.42;100.00
24788;BME280;12883;52.662;5.196;2023-05-07T08:41:44;101780.81;;;16.26;100.00
24788;BME280;12883;52.662;5.196;2023-05-07T08:44:12;101773.97;;;16.30;100.00
24788;BME280;12883;52.662;5.196;2023-05-07T08:46:39;101775.34;;;16.52;100.00
24788;BME280;12883;52.662;5.196;2023-05-07T08:49:04;101775.03;;;16.73;100.00
24788;BME280;12883;52.662;5.196;2023-05-07T08:51:30;101770.09;;;17.01;100.00
24788;BME280;12883;52.662;5.196;2023-05-07T08:53:56;101761.78;;;16.78;100.00
24788;BME280;12883;52.662;5.196;2023-05-07T08:56:21;101787.06;;;16.95;100.00
24788;BME280;12883;52.662;5.196;2023-05-07T08:58:47;101777.09;;;17.02;100.00
24788;BME280;12883;52.662;5.196;2023-05-07T09:01:15;101775.66;;;17.00;100.00
24788;BME280;12883;52.662;5.196;2023-05-07T09:03:41;101770.03;;;17.08;100.00
24788;BME280;12883;52.662;5.196;2023-05-07T09:06:09;101784.78;;;17.23;100.00
24788;BME280;12883;52.662;5.196;2023-05-07T09:08:35;101782.38;;;17.15;100.00
24788;BME280;12883;52.662;5.196;2023-05-07T09:11:01;101788.31;;;16.93;100.00
24788;BME280;12883;52.662;5.196;2023-05-07T09:13:27;101791.97;;;16.98;100.00
24788;BME280;12883;52.662;5.196;2023-05-07T09:15:52;101790.41;;;17.15;100.00
24788;BME280;12883;52.662;5.196;2023-05-07T09:18:18;101797.69;;;17.08;100.00
24788;BME280;12883;52.662;5.196;2023-05-07T09:20:43;101791.59;;;17.19;100.00
24788;BME280;12883;52.662;5.196;2023-05-07T09:23:09;101796.66;;;17.09;100.00
24788;BME280;12883;52.662;5.196;2023-05-07T09:25:35;101796.66;;;17.09;100.00
24788;BME280;12883;52.662;5.196;2023-05-07T09:28:02;101793.97;;;17.09;100.00
24788;BME280;12883;52.662;5.196;2023-05-07T09:30:29;101792.53;;;17.31;100.00
24788;BME280;12883;52.662;5.196;2023-05-07T09:32:55;101796.19;;;17.43;100.00
24788;BME280;12883;52.662;5.196;2023-05-07T09:35:21;101802.38;;;17.44;100.00
24788;BME280;12883;52.662;5.196;2023-05-07T09:37:49;101794.19;;;17.39;100.00
24788;BME280;12883;52.662;5.196;2023-05-07T09:40:22;101787.75;;;17.40;100.00
24788;BME280;12883;52.662;5.196;2023-05-07T09:42:48;101786.34;;;17.37;100.00
24788;BME280;12883;52.662;5.196;2023-05-07T09:45:14;101799.41;;;17.52;100.00
24788;BME280;12883;52.662;5.196;2023-05-07T09:47:42;101798.97;;;17.55;100.00
24788;BME280;12883;52.662;5.196;2023-05-07T09:50:10;101794.78;;;17.59;100.00
24788;BME280;12883;52.662;5.196;2023-05-07T09:52:39;101790.84;;;17.61;100.00
24788;BME280;12883;52.662;5.196;2023-05-07T09:55:06;101791.59;;;17.68;100.00
24788;BME280;12883;52.662;5.196;2023-05-07T09:57:32;101796.31;;;17.73;100.00
24788;BME280;12883;52.662;5.196;2023-05-07T09:59:59;101794.47;;;17.73;100.00
24788;BME280;12883;52.662;5.196;2023-05-07T10:02:30;101789.25;;;17.78;100.00
24788;BME280;12883;52.662;5.196;2023-05-07T10:04:56;101804.47;;;18.02;100.00
24788;BME280;12883;52.662;5.196;2023-05-07T10:07:21;101806.56;;;18.00;100.00
24788;BME280;12883;52.662;5.196;2023-05-07T10:09:48;101785.81;;;18.07;100.00
24788;BME280;12883;52.662;5.196;2023-05-07T10:12:13;101795.09;;;18.11;100.00
24788;BME280;12883;52.662;5.196;2023-05-07T10:14:40;101779.50;;;18.02;100.00
24788;BME280;12883;52.662;5.196;2023-05-07T10:17:05;101797.22;;;18.21;100.00
24788;BME280;12883;52.662;5.196;2023-05-07T10:19:31;101787.91;;;18.23;100.00
24788;BME280;12883;52.662;5.196;2023-05-07T10:22:03;101792.53;;;18.16;100.00
24788;BME280;12883;52.662;5.196;2023-05-07T10:24:32;101796.56;;;18.25;100.00
24788;BME280;12883;52.662;5.196;2023-05-07T10:27:00;101802.75;;;18.26;100.00
24788;BME280;12883;52.662;5.196;2023-05-07T10:31:55;101785.97;;;18.30;100.00
24788;BME280;12883;52.662;5.196;2023-05-07T10:34:26;101809.66;;;18.22;100.00
24788;BME280;12883;52.662;5.196;2023-05-07T10:36:53;101815.75;;;18.11;100.00
24788;BME280;12883;52.662;5.196;2023-05-07T10:39:20;101808.81;;;18.03;100.00
24788;BME280;12883;52.662;5.196;2023-05-07T10:41:46;101807.34;;;18.25;100.00
24788;BME280;12883;52.662;5.196;2023-05-07T10:44:27;101801.06;;;18.31;100.00
24788;BME280;12883;52.662;5.196;2023-05-07T10:47:16;101811.22;;;18.47;100.00
24788;BME280;12883;52.662;5.196;2023-05-07T10:52:12;101813.13;;;18.58;100.00
24788;BME280;12883;52.662;5.196;2023-05-07T10:54:39;101812.78;;;18.37;100.00
24788;BME280;12883;52.662;5.196;2023-05-07T10:57:33;101798.63;;;18.59;100.00
24788;BME280;12883;52.662;5.196;2023-05-07T11:05:30;101798.44;;;18.72;100.00
24788;BME280;12883;52.662;5.196;2023-05-07T11:07:56;101802.00;;;18.84;100.00
24788;BME280;12883;52.662;5.196;2023-05-07T11:10:22;101801.56;;;18.87;100.00
24788;BME280;12883;52.662;5.196;2023-05-07T11:12:50;101803.66;;;18.85;100.00
24788;BME280;12883;52.662;5.196;2023-05-07T11:15:44;101799.59;;;18.94;100.00
24788;BME280;12883;52.662;5.196;2023-05-07T11:18:11;101804.66;;;19.02;100.00
24788;BME280;12883;52.662;5.196;2023-05-07T11:20:48;101807.78;;;18.99;100.00
24788;BME280;12883;52.662;5.196;2023-05-07T11:26:00;101804.38;;;18.92;100.00
24788;BME280;12883;52.662;5.196;2023-05-07T11:28:28;101798.78;;;19.05;100.00
24788;BME280;12883;52.662;5.196;2023-05-07T11:30:54;101791.88;;;18.98;100.00
24788;BME280;12883;52.662;5.196;2023-05-07T11:33:20;101790.59;;;19.00;100.00
24788;BME280;12883;52.662;5.196;2023-05-07T11:35:45;101754.53;;;18.90;100.00
24788;BME280;12883;52.662;5.196;2023-05-07T11:38:12;101796.88;;;19.24;100.00
24788;BME280;12883;52.662;5.196;2023-05-07T11:40:56;101793.88;;;19.02;100.00
24788;BME280;12883;52.662;5.196;2023-05-07T11:43:21;101786.78;;;19.19;100.00
24788;BME280;12883;52.662;5.196;2023-05-07T11:45:48;101800.88;;;19.33;100.00
24788;BME280;12883;52.662;5.196;2023-05-07T11:48:14;101811.19;;;19.36;100.00
24788;BME280;12883;52.662;5.196;2023-05-07T11:53:27;101812.38;;;19.40;100.00
24788;BME280;12883;52.662;5.196;2023-05-07T11:55:55;101809.06;;;19.26;100.00
24788;BME280;12883;52.662;5.196;2023-05-07T11:58:22;101805.31;;;19.39;100.00
24788;BME280;12883;52.662;5.196;2023-05-07T12:00:51;101808.50;;;19.47;100.00
24788;BME280;12883;52.662;5.196;2023-05-07T12:03:17;101813.66;;;19.37;100.00
24788;BME280;12883;52.662;5.196;2023-05-07T12:05:44;101813.16;;;19.40;100.00
24788;BME280;12883;52.662;5.196;2023-05-07T12:08:14;101806.34;;;19.26;100.00
24788;BME280;12883;52.662;5.196;2023-05-07T12:10:49;101817.25;;;19.31;100.00
24788;BME280;12883;52.662;5.196;2023-05-07T12:13:23;101812.03;;;19.59;100.00
24788;BME280;12883;52.662;5.196;2023-05-07T12:15:55;101819.97;;;19.43;100.00
24788;BME280;12883;52.662;5.196;2023-05-07T12:18:22;101807.34;;;19.66;100.00
24788;BME280;12883;52.662;5.196;2023-05-07T12:20:49;101819.75;;;19.67;100.00
24788;BME280;12883;52.662;5.196;2023-05-07T12:23:15;101828.19;;;19.71;100.00
24788;BME280;12883;52.662;5.196;2023-05-07T12:25:42;101818.31;;;19.76;100.00
24788;BME280;12883;52.662;5.196;2023-05-07T12:28:15;101824.31;;;19.78;100.00
24788;BME280;12883;52.662;5.196;2023-05-07T12:30:42;101817.63;;;19.92;100.00
24788;BME280;12883;52.662;5.196;2023-05-07T12:33:08;101827.47;;;19.98;100.00
24788;BME280;12883;52.662;5.196;2023-05-07T12:35:38;101829.22;;;19.81;100.00
24788;BME280;12883;52.662;5.196;2023-05-07T12:38:17;101819.97;;;20.00;100.00
24788;BME280;12883;52.662;5.196;2023-05-07T12:40:54;101819.50;;;20.03;100.00
24788;BME280;12883;52.662;5.196;2023-05-07T12:43:27;101820.69;;;19.96;100.00
24788;BME280;12883;52.662;5.196;2023-05-07T12:46:11;101814.00;;;19.75;100.00
24788;BME280;12883;52.662;5.196;2023-05-07T12:48:43;101826.88;;;19.85;100.00
24788;BME280;12883;52.662;5.196;2023-05-07T12:51:08;101821.38;;;19.80;100.00
24788;BME280;12883;52.662;5.196;2023-05-07T12:53:39;101824.91;;;19.69;100.00